sensor_id;sensor_type;location;lat;lon;timestamp;temperature;humidity
17843;DHT22;69286;48.222;16.332;2023-04-26T00:01:56;10.50;74.30
17843;DHT22;69286;48.222;16.332;2023-04-26T00:04:24;10.40;74.10
17843;DHT22;69286;48.222;16.332;2023-04-26T00:06:53;10.40;73.50
17843;DHT22;69286;48.222;16.332;2023-04-26T00:09:20;10.40;73.70
17843;DHT22;69286;48.222;16.332;2023-04-26T00:11:47;10.40;73.70
17843;DHT22;69286;48.222;16.332;2023-04-26T00:14:14;10.30;73.10
17843;DHT22;69286;48.222;16.332;2023-04-26T00:16:41;10.30;73.70
17843;DHT22;69286;48.222;16.332;2023-04-26T00:19:08;10.30;73.60
17843;DHT22;69286;48.222;16.332;2023-04-26T00:21:37;10.20;73.50
17843;DHT22;69286;48.222;16.332;2023-04-26T00:24:05;10.30;73.20
17843;DHT22;69286;48.222;16.332;2023-04-26T00:26:32;10.20;73.60
17843;DHT22;69286;48.222;16.332;2023-04-26T00:28:59;10.10;74.10
17843;DHT22;69286;48.222;16.332;2023-04-26T00:31:26;10.10;73.80
17843;DHT22;69286;48.222;16.332;2023-04-26T00:33:53;10.10;74.20
17843;DHT22;69286;48.222;16.332;2023-04-26T00:36:20;10.10;74.40
17843;DHT22;69286;48.222;16.332;2023-04-26T00:38:49;10.00;74.60
17843;DHT22;69286;48.222;16.332;2023-04-26T00:41:16;10.00;74.80
17843;DHT22;69286;48.222;16.332;2023-04-26T00:43:43;10.00;74.60
17843;DHT22;69286;48.222;16.332;2023-04-26T00:46:10;9.90;75.00
17843;DHT22;69286;48.222;16.332;2023-04-26T00:48:37;10.00;75.00
17843;DHT22;69286;48.222;16.332;2023-04-26T00:51:04;9.90;75.00
17843;DHT22;69286;48.222;16.332;2023-04-26T00:53:32;9.90;75.20
17843;DHT22;69286;48.222;16.332;2023-04-26T00:56:01;9.90;75.10
17843;DHT22;69286;48.222;16.332;2023-04-26T00:58:29;9.90;74.90
17843;DHT22;69286;48.222;16.332;2023-04-26T01:00:56;9.90;74.30
17843;DHT22;69286;48.222;16.332;2023-04-26T01:03:23;9.90;74.30
17843;DHT22;69286;48.222;16.332;2023-04-26T01:05:51;9.80;74.00
17843;DHT22;69286;48.222;16.332;2023-04-26T01:08:19;9.80;73.90
17843;DHT22;69286;48.222;16.332;2023-04-26T01:10:46;9.80;73.60
17843;DHT22;69286;48.222;16.332;2023-04-26T01:13:15;9.80;73.70
17843;DHT22;69286;48.222;16.332;2023-04-26T01:15:44;9.80;73.00
17843;DHT22;69286;48.222;16.332;2023-04-26T01:18:12;9.90;72.60
17843;DHT22;69286;48.222;16.332;2023-04-26T01:20:39;9.90;72.20
17843;DHT22;69286;48.222;16.332;2023-04-26T01:23:09;9.90;71.50
17843;DHT22;69286;48.222;16.332;2023-04-26T01:25:36;9.90;70.90
17843;DHT22;69286;48.222;16.332;2023-04-26T01:28:03;9.90;70.50
17843;DHT22;69286;48.222;16.332;2023-04-26T01:30:30;9.90;70.00
17843;DHT22;69286;48.222;16.332;2023-04-26T01:32:57;10.00;69.80
17843;DHT22;69286;48.222;16.332;2023-04-26T01:35:24;10.00;69.10
17843;DHT22;69286;48.222;16.332;2023-04-26T01:37:51;10.00;68.30
17843;DHT22;69286;48.222;16.332;2023-04-26T01:40:19;10.00;67.50
17843;DHT22;69286;48.222;16.332;2023-04-26T01:42:46;10.00;67.50
17843;DHT22;69286;48.222;16.332;2023-04-26T01:45:13;10.00;67.10
17843;DHT22;69286;48.222;16.332;2023-04-26T01:47:40;10.00;66.80
17843;DHT22;69286;48.222;16.332;2023-04-26T01:50:08;10.00;66.40
17843;DHT22;69286;48.222;16.332;2023-04-26T01:52:35;10.00;66.70
17843;DHT22;69286;48.222;16.332;2023-04-26T01:55:03;10.00;66.70
17843;DHT22;69286;48.222;16.332;2023-04-26T01:57:31;10.00;67.10
17843;DHT22;69286;48.222;16.332;2023-04-26T01:59:58;10.00;67.10
17843;DHT22;69286;48.222;16.332;2023-04-26T02:02:27;10.00;66.70
17843;DHT22;69286;48.222;16.332;2023-04-26T02:04:53;10.00;67.30
17843;DHT22;69286;48.222;16.332;2023-04-26T02:07:20;9.90;67.00
17843;DHT22;69286;48.222;16.332;2023-04-26T02:09:47;9.80;66.80
17843;DHT22;69286;48.222;16.332;2023-04-26T02:12:14;9.80;66.90
17843;DHT22;69286;48.222;16.332;2023-04-26T02:14:42;9.80;67.00
17843;DHT22;69286;48.222;16.332;2023-04-26T02:17:09;9.80;66.50
17843;DHT22;69286;48.222;16.332;2023-04-26T02:19:36;9.70;66.70
17843;DHT22;69286;48.222;16.332;2023-04-26T02:22:04;9.60;67.10
17843;DHT22;69286;48.222;16.332;2023-04-26T02:24:32;9.60;67.90
17843;DHT22;69286;48.222;16.332;2023-04-26T02:26:59;9.50;68.70
17843;DHT22;69286;48.222;16.332;2023-04-26T02:29:28;9.50;69.20
17843;DHT22;69286;48.222;16.332;2023-04-26T02:31:57;9.40;70.00
17843;DHT22;69286;48.222;16.332;2023-04-26T02:34:24;9.30;70.10
17843;DHT22;69286;48.222;16.332;2023-04-26T02:36:51;9.30;70.30
17843;DHT22;69286;48.222;16.332;2023-04-26T02:39:18;9.30;70.40
17843;DHT22;69286;48.222;16.332;2023-04-26T02:41:45;9.30;70.50
17843;DHT22;69286;48.222;16.332;2023-04-26T02:44:12;9.10;70.60
17843;DHT22;69286;48.222;16.332;2023-04-26T02:46:39;9.10;70.30
17843;DHT22;69286;48.222;16.332;2023-04-26T02:49:07;9.10;70.40
17843;DHT22;69286;48.222;16.332;2023-04-26T02:51:34;9.10;70.30
17843;DHT22;69286;48.222;16.332;2023-04-26T02:54:01;9.00;70.30
17843;DHT22;69286;48.222;16.332;2023-04-26T02:56:28;9.00;70.10
17843;DHT22;69286;48.222;16.332;2023-04-26T02:58:55;8.90;69.80
17843;DHT22;69286;48.222;16.332;2023-04-26T03:01:22;9.00;69.80
17843;DHT22;69286;48.222;16.332;2023-04-26T03:03:49;8.90;70.00
17843;DHT22;69286;48.222;16.332;2023-04-26T03:06:18;8.80;69.40
17843;DHT22;69286;48.222;16.332;2023-04-26T03:08:45;8.80;69.30
17843;DHT22;69286;48.222;16.332;2023-04-26T03:11:12;8.80;69.00
17843;DHT22;69286;48.222;16.332;2023-04-26T03:13:39;8.80;69.00
17843;DHT22;69286;48.222;16.332;2023-04-26T03:16:06;8.70;68.90
17843;DHT22;69286;48.222;16.332;2023-04-26T03:18:33;8.70;69.90
17843;DHT22;69286;48.222;16.332;2023-04-26T03:21:00;8.60;69.30
17843;DHT22;69286;48.222;16.332;2023-04-26T03:23:29;8.70;68.70
17843;DHT22;69286;48.222;16.332;2023-04-26T03:25:56;8.70;68.30
17843;DHT22;69286;48.222;16.332;2023-04-26T03:28:23;8.60;67.80
17843;DHT22;69286;48.222;16.332;2023-04-26T03:30:51;8.60;67.80
17843;DHT22;69286;48.222;16.332;2023-04-26T03:33:17;8.60;67.90
17843;DHT22;69286;48.222;16.332;2023-04-26T03:35:44;8.60;67.70
17843;DHT22;69286;48.222;16.332;2023-04-26T03:38:11;8.70;67.20
17843;DHT22;69286;48.222;16.332;2023-04-26T03:40:40;8.60;67.10
17843;DHT22;69286;48.222;16.332;2023-04-26T03:43:07;8.60;67.30
17843;DHT22;69286;48.222;16.332;2023-04-26T03:45:34;8.50;67.30
17843;DHT22;69286;48.222;16.332;2023-04-26T03:48:01;8.50;67.30
17843;DHT22;69286;48.222;16.332;2023-04-26T03:50:28;8.50;67.80
17843;DHT22;69286;48.222;16.332;2023-04-26T03:52:55;8.50;68.10
17843;DHT22;69286;48.222;16.332;2023-04-26T03:55:22;8.50;67.80
17843;DHT22;69286;48.222;16.332;2023-04-26T03:57:51;8.50;67.20
17843;DHT22;69286;48.222;16.332;2023-04-26T04:00:18;8.50;67.60
17843;DHT22;69286;48.222;16.332;2023-04-26T04:02:46;8.50;67.60
17843;DHT22;69286;48.222;16.332;2023-04-26T04:05:13;8.60;67.50
17843;DHT22;69286;48.222;16.332;2023-04-26T04:07:40;8.50;67.60
17843;DHT22;69286;48.222;16.332;2023-04-26T04:10:07;8.50;67.50
17843;DHT22;69286;48.222;16.332;2023-04-26T04:12:35;8.40;67.60
17843;DHT22;69286;48.222;16.332;2023-04-26T04:15:04;8.40;68.40
17843;DHT22;69286;48.222;16.332;2023-04-26T04:17:32;8.50;67.90
17843;DHT22;69286;48.222;16.332;2023-04-26T04:19:59;8.50;67.90
17843;DHT22;69286;48.222;16.332;2023-04-26T04:22:26;8.50;68.20
17843;DHT22;69286;48.222;16.332;2023-04-26T04:24:53;8.60;68.40
17843;DHT22;69286;48.222;16.332;2023-04-26T04:27:20;8.60;68.30
17843;DHT22;69286;48.222;16.332;2023-04-26T04:29:47;8.70;68.40
17843;DHT22;69286;48.222;16.332;2023-04-26T04:32:16;8.60;68.00
17843;DHT22;69286;48.222;16.332;2023-04-26T04:34:43;8.70;68.70
17843;DHT22;69286;48.222;16.332;2023-04-26T04:37:10;8.70;68.70
17843;DHT22;69286;48.222;16.332;2023-04-26T04:39:37;8.80;68.50
17843;DHT22;69286;48.222;16.332;2023-04-26T04:42:04;8.80;68.30
17843;DHT22;69286;48.222;16.332;2023-04-26T04:44:31;8.80;68.40
17843;DHT22;69286;48.222;16.332;2023-04-26T04:46:58;8.90;69.40
17843;DHT22;69286;48.222;16.332;2023-04-26T04:49:26;8.90;68.80
17843;DHT22;69286;48.222;16.332;2023-04-26T04:51:53;8.80;69.10
17843;DHT22;69286;48.222;16.332;2023-04-26T04:54:20;8.80;70.10
17843;DHT22;69286;48.222;16.332;2023-04-26T04:56:47;8.90;69.50
17843;DHT22;69286;48.222;16.332;2023-04-26T04:59:14;8.90;69.50
17843;DHT22;69286;48.222;16.332;2023-04-26T05:01:41;9.00;70.00
17843;DHT22;69286;48.222;16.332;2023-04-26T05:04:08;9.30;70.30
17843;DHT22;69286;48.222;16.332;2023-04-26T05:06:36;9.60;68.70
17843;DHT22;69286;48.222;16.332;2023-04-26T05:09:04;9.90;68.20
17843;DHT22;69286;48.222;16.332;2023-04-26T05:11:31;10.20;67.50
17843;DHT22;69286;48.222;16.332;2023-04-26T05:13:58;10.60;66.50
17843;DHT22;69286;48.222;16.332;2023-04-26T05:16:25;11.00;65.30
17843;DHT22;69286;48.222;16.332;2023-04-26T05:18:53;11.30;64.40
17843;DHT22;69286;48.222;16.332;2023-04-26T05:21:21;11.60;63.30
17843;DHT22;69286;48.222;16.332;2023-04-26T05:23:50;11.90;62.10
17843;DHT22;69286;48.222;16.332;2023-04-26T05:26:17;12.20;60.40
17843;DHT22;69286;48.222;16.332;2023-04-26T05:28:43;12.50;60.00
17843;DHT22;69286;48.222;16.332;2023-04-26T05:31:10;12.80;58.70
17843;DHT22;69286;48.222;16.332;2023-04-26T05:33:37;13.00;58.40
17843;DHT22;69286;48.222;16.332;2023-04-26T05:36:05;13.30;57.40
17843;DHT22;69286;48.222;16.332;2023-04-26T05:38:33;13.50;56.10
17843;DHT22;69286;48.222;16.332;2023-04-26T05:41:02;13.60;54.90
17843;DHT22;69286;48.222;16.332;2023-04-26T05:43:29;13.90;55.00
17843;DHT22;69286;48.222;16.332;2023-04-26T05:45:56;14.00;54.90
17843;DHT22;69286;48.222;16.332;2023-04-26T05:48:24;14.30;53.30
17843;DHT22;69286;48.222;16.332;2023-04-26T05:50:51;14.60;52.50
17843;DHT22;69286;48.222;16.332;2023-04-26T05:53:19;14.80;52.10
17843;DHT22;69286;48.222;16.332;2023-04-26T05:55:46;14.90;51.10
17843;DHT22;69286;48.222;16.332;2023-04-26T05:58:14;15.30;50.00
17843;DHT22;69286;48.222;16.332;2023-04-26T06:00:41;15.60;49.00
17843;DHT22;69286;48.222;16.332;2023-04-26T06:03:08;15.50;48.50
17843;DHT22;69286;48.222;16.332;2023-04-26T06:05:36;15.80;48.00
17843;DHT22;69286;48.222;16.332;2023-04-26T06:08:04;15.80;47.40
17843;DHT22;69286;48.222;16.332;2023-04-26T06:10:31;15.80;46.90
17843;DHT22;69286;48.222;16.332;2023-04-26T06:13:03;15.90;46.80
17843;DHT22;69286;48.222;16.332;2023-04-26T06:15:31;15.90;47.00
17843;DHT22;69286;48.222;16.332;2023-04-26T06:17:58;16.10;46.80
17843;DHT22;69286;48.222;16.332;2023-04-26T06:20:25;16.40;46.40
17843;DHT22;69286;48.222;16.332;2023-04-26T06:22:52;16.70;45.80
17843;DHT22;69286;48.222;16.332;2023-04-26T06:25:20;16.80;45.50
17843;DHT22;69286;48.222;16.332;2023-04-26T06:27:47;16.90;45.70
17843;DHT22;69286;48.222;16.332;2023-04-26T06:30:14;17.10;44.60
17843;DHT22;69286;48.222;16.332;2023-04-26T06:32:43;17.30;44.50
17843;DHT22;69286;48.222;16.332;2023-04-26T06:35:10;17.50;43.90
17843;DHT22;69286;48.222;16.332;2023-04-26T06:37:37;17.50;43.70
17843;DHT22;69286;48.222;16.332;2023-04-26T06:40:05;17.50;43.40
17843;DHT22;69286;48.222;16.332;2023-04-26T06:42:32;17.70;43.50
17843;DHT22;69286;48.222;16.332;2023-04-26T06:45:00;17.60;43.30
17843;DHT22;69286;48.222;16.332;2023-04-26T06:47:26;17.70;43.20
17843;DHT22;69286;48.222;16.332;2023-04-26T06:49:55;17.70;42.90
17843;DHT22;69286;48.222;16.332;2023-04-26T06:52:22;17.50;43.10
17843;DHT22;69286;48.222;16.332;2023-04-26T06:54:49;17.50;43.70
17843;DHT22;69286;48.222;16.332;2023-04-26T06:57:16;17.60;43.30
17843;DHT22;69286;48.222;16.332;2023-04-26T06:59:43;17.80;48.20
17843;DHT22;69286;48.222;16.332;2023-04-26T07:02:10;17.90;47.70
17843;DHT22;69286;48.222;16.332;2023-04-26T07:04:37;17.80;48.70
17843;DHT22;69286;48.222;16.332;2023-04-26T07:07:06;17.90;45.80
17843;DHT22;69286;48.222;16.332;2023-04-26T07:09:33;17.90;46.80
17843;DHT22;69286;48.222;16.332;2023-04-26T07:12:00;18.00;46.20
17843;DHT22;69286;48.222;16.332;2023-04-26T07:14:27;18.20;45.90
17843;DHT22;69286;48.222;16.332;2023-04-26T07:16:54;18.20;47.60
17843;DHT22;69286;48.222;16.332;2023-04-26T07:19:21;18.40;43.80
17843;DHT22;69286;48.222;16.332;2023-04-26T07:21:48;18.50;46.40
17843;DHT22;69286;48.222;16.332;2023-04-26T07:24:16;18.50;43.60
17843;DHT22;69286;48.222;16.332;2023-04-26T07:26:44;18.80;43.60
17843;DHT22;69286;48.222;16.332;2023-04-26T07:29:11;19.00;41.60
17843;DHT22;69286;48.222;16.332;2023-04-26T07:31:38;19.10;41.90
17843;DHT22;69286;48.222;16.332;2023-04-26T07:34:07;19.10;40.90
17843;DHT22;69286;48.222;16.332;2023-04-26T07:36:34;19.20;41.50
17843;DHT22;69286;48.222;16.332;2023-04-26T07:39:01;19.30;40.70
17843;DHT22;69286;48.222;16.332;2023-04-26T07:41:31;19.60;39.80
17843;DHT22;69286;48.222;16.332;2023-04-26T07:43:58;19.90;38.90
17843;DHT22;69286;48.222;16.332;2023-04-26T07:46:25;19.90;37.80
17843;DHT22;69286;48.222;16.332;2023-04-26T07:48:52;19.60;38.30
17843;DHT22;69286;48.222;16.332;2023-04-26T07:51:19;19.20;38.00
17843;DHT22;69286;48.222;16.332;2023-04-26T07:53:46;18.70;38.40
17843;DHT22;69286;48.222;16.332;2023-04-26T07:56:13;18.50;38.40
17843;DHT22;69286;48.222;16.332;2023-04-26T07:58:41;18.10;39.20
17843;DHT22;69286;48.222;16.332;2023-04-26T08:01:08;17.80;40.10
17843;DHT22;69286;48.222;16.332;2023-04-26T08:03:36;17.50;40.90
17843;DHT22;69286;48.222;16.332;2023-04-26T08:06:03;17.20;42.60
17843;DHT22;69286;48.222;16.332;2023-04-26T08:08:30;16.90;43.00
17843;DHT22;69286;48.222;16.332;2023-04-26T08:10:58;16.70;43.30
17843;DHT22;69286;48.222;16.332;2023-04-26T08:13:25;16.60;43.90
17843;DHT22;69286;48.222;16.332;2023-04-26T08:15:53;16.40;44.20
17843;DHT22;69286;48.222;16.332;2023-04-26T08:18:20;16.30;44.60
17843;DHT22;69286;48.222;16.332;2023-04-26T08:20:47;16.20;45.10
17843;DHT22;69286;48.222;16.332;2023-04-26T08:23:14;16.20;45.50
17843;DHT22;69286;48.222;16.332;2023-04-26T08:25:41;15.80;45.70
17843;DHT22;69286;48.222;16.332;2023-04-26T08:28:08;15.70;46.00
17843;DHT22;69286;48.222;16.332;2023-04-26T08:30:39;15.80;45.10
17843;DHT22;69286;48.222;16.332;2023-04-26T08:33:08;15.80;45.20
17843;DHT22;69286;48.222;16.332;2023-04-26T08:35:35;15.80;43.60
17843;DHT22;69286;48.222;16.332;2023-04-26T08:38:02;15.90;43.80
17843;DHT22;69286;48.222;16.332;2023-04-26T08:40:29;15.90;43.30
17843;DHT22;69286;48.222;16.332;2023-04-26T08:42:56;15.90;43.60
17843;DHT22;69286;48.222;16.332;2023-04-26T08:45:23;15.80;43.70
17843;DHT22;69286;48.222;16.332;2023-04-26T08:47:52;15.80;43.90
17843;DHT22;69286;48.222;16.332;2023-04-26T08:50:24;15.70;43.60
17843;DHT22;69286;48.222;16.332;2023-04-26T08:52:51;15.50;43.80
17843;DHT22;69286;48.222;16.332;2023-04-26T08:55:19;15.50;44.20
17843;DHT22;69286;48.222;16.332;2023-04-26T08:57:47;15.40;44.50
17843;DHT22;69286;48.222;16.332;2023-04-26T09:00:15;15.40;44.40
17843;DHT22;69286;48.222;16.332;2023-04-26T09:02:46;15.30;44.40
17843;DHT22;69286;48.222;16.332;2023-04-26T09:05:13;15.70;44.60
17843;DHT22;69286;48.222;16.332;2023-04-26T09:07:43;16.50;42.80
17843;DHT22;69286;48.222;16.332;2023-04-26T09:10:13;17.10;41.60
17843;DHT22;69286;48.222;16.332;2023-04-26T09:12:40;17.50;41.20
17843;DHT22;69286;48.222;16.332;2023-04-26T09:15:08;17.50;40.60
17843;DHT22;69286;48.222;16.332;2023-04-26T09:17:36;17.90;39.70
17843;DHT22;69286;48.222;16.332;2023-04-26T09:20:18;18.20;38.90
17843;DHT22;69286;48.222;16.332;2023-04-26T09:22:47;18.00;38.40
17843;DHT22;69286;48.222;16.332;2023-04-26T09:25:16;18.00;39.20
17843;DHT22;69286;48.222;16.332;2023-04-26T09:27:44;17.80;39.00
17843;DHT22;69286;48.222;16.332;2023-04-26T09:30:12;17.60;39.50
17843;DHT22;69286;48.222;16.332;2023-04-26T09:32:46;17.30;40.00
17843;DHT22;69286;48.222;16.332;2023-04-26T09:35:27;16.90;40.50
17843;DHT22;69286;48.222;16.332;2023-04-26T09:37:58;16.50;41.10
17843;DHT22;69286;48.222;16.332;2023-04-26T09:40:26;16.20;42.20
17843;DHT22;69286;48.222;16.332;2023-04-26T09:43:01;16.10;42.10
17843;DHT22;69286;48.222;16.332;2023-04-26T09:45:29;16.30;42.40
17843;DHT22;69286;48.222;16.332;2023-04-26T09:48:12;17.50;41.20
17843;DHT22;69286;48.222;16.332;2023-04-26T09:50:41;18.80;38.60
17843;DHT22;69286;48.222;16.332;2023-04-26T09:53:10;18.60;37.30
17843;DHT22;69286;48.222;16.332;2023-04-26T09:55:37;18.80;38.10
17843;DHT22;69286;48.222;16.332;2023-04-26T09:58:09;18.40;38.60
17843;DHT22;69286;48.222;16.332;2023-04-26T10:00:37;18.00;39.50
17843;DHT22;69286;48.222;16.332;2023-04-26T10:03:07;17.40;40.60
17843;DHT22;69286;48.222;16.332;2023-04-26T10:05:35;17.30;41.10
17843;DHT22;69286;48.222;16.332;2023-04-26T10:08:03;17.30;41.20
17843;DHT22;69286;48.222;16.332;2023-04-26T10:10:32;17.20;40.90
17843;DHT22;69286;48.222;16.332;2023-04-26T10:13:00;17.10;40.90
17843;DHT22;69286;48.222;16.332;2023-04-26T10:15:28;17.00;42.20
17843;DHT22;69286;48.222;16.332;2023-04-26T10:17:55;17.10;41.50
17843;DHT22;69286;48.222;16.332;2023-04-26T10:20:23;17.00;41.60
17843;DHT22;69286;48.222;16.332;2023-04-26T10:22:55;16.80;42.50
17843;DHT22;69286;48.222;16.332;2023-04-26T10:25:35;16.80;42.80
17843;DHT22;69286;48.222;16.332;2023-04-26T10:28:03;16.70;43.00
17843;DHT22;69286;48.222;16.332;2023-04-26T10:30:31;16.70;42.90
17843;DHT22;69286;48.222;16.332;2023-04-26T10:33:15;16.60;43.10
17843;DHT22;69286;48.222;16.332;2023-04-26T10:36:06;16.60;43.00
17843;DHT22;69286;48.222;16.332;2023-04-26T10:38:35;16.60;42.60
17843;DHT22;69286;48.222;16.332;2023-04-26T10:41:29;16.70;42.80
17843;DHT22;69286;48.222;16.332;2023-04-26T10:43:58;16.70;42.60
17843;DHT22;69286;48.222;16.332;2023-04-26T10:46:36;16.60;42.70
17843;DHT22;69286;48.222;16.332;2023-04-26T10:49:14;16.40;43.00
17843;DHT22;69286;48.222;16.332;2023-04-26T10:52:10;16.40;42.80
17843;DHT22;69286;48.222;16.332;2023-04-26T10:54:52;16.20;43.20
17843;DHT22;69286;48.222;16.332;2023-04-26T10:57:22;16.30;43.50
17843;DHT22;69286;48.222;16.332;2023-04-26T11:03:05;16.50;42.70
17843;DHT22;69286;48.222;16.332;2023-04-26T11:05:51;16.60;41.90
17843;DHT22;69286;48.222;16.332;2023-04-26T11:08:20;16.60;40.70
17843;DHT22;69286;48.222;16.332;2023-04-26T11:10:52;16.50;41.40
17843;DHT22;69286;48.222;16.332;2023-04-26T11:13:23;16.30;42.00
17843;DHT22;69286;48.222;16.332;2023-04-26T11:15:59;16.20;42.10
17843;DHT22;69286;48.222;16.332;2023-04-26T11:18:27;16.10;42.60
17843;DHT22;69286;48.222;16.332;2023-04-26T11:20:54;16.00;42.70
17843;DHT22;69286;48.222;16.332;2023-04-26T11:23:22;16.10;42.30
17843;DHT22;69286;48.222;16.332;2023-04-26T11:25:49;16.10;41.70
17843;DHT22;69286;48.222;16.332;2023-04-26T11:28:17;16.10;41.80
17843;DHT22;69286;48.222;16.332;2023-04-26T11:30:47;16.10;41.30
17843;DHT22;69286;48.222;16.332;2023-04-26T11:33:16;16.10;41.10
17843;DHT22;69286;48.222;16.332;2023-04-26T11:35:45;16.20;41.20
17843;DHT22;69286;48.222;16.332;2023-04-26T11:38:12;16.20;40.80
17843;DHT22;69286;48.222;16.332;2023-04-26T11:40:39;16.30;40.50
17843;DHT22;69286;48.222;16.332;2023-04-26T11:43:07;16.40;39.80
17843;DHT22;69286;48.222;16.332;2023-04-26T11:45:36;16.50;39.20
17843;DHT22;69286;48.222;16.332;2023-04-26T11:48:06;16.50;38.70
17843;DHT22;69286;48.222;16.332;2023-04-26T11:50:33;16.40;38.50
17843;DHT22;69286;48.222;16.332;2023-04-26T11:53:03;16.30;38.40
17843;DHT22;69286;48.222;16.332;2023-04-26T11:55:31;16.20;38.20
17843;DHT22;69286;48.222;16.332;2023-04-26T11:57:59;16.20;38.30
17843;DHT22;69286;48.222;16.332;2023-04-26T12:00:26;16.10;38.30
17843;DHT22;69286;48.222;16.332;2023-04-26T12:02:53;16.10;38.50
17843;DHT22;69286;48.222;16.332;2023-04-26T12:05:26;16.10;39.50
17843;DHT22;69286;48.222;16.332;2023-04-26T12:07:56;16.20;39.30
17843;DHT22;69286;48.222;16.332;2023-04-26T12:10:25;16.30;38.80
17843;DHT22;69286;48.222;16.332;2023-04-26T12:12:53;16.30;38.90
17843;DHT22;69286;48.222;16.332;2023-04-26T12:15:23;16.50;39.10
17843;DHT22;69286;48.222;16.332;2023-04-26T12:17:52;16.50;39.20
17843;DHT22;69286;48.222;16.332;2023-04-26T12:20:27;16.50;38.80
17843;DHT22;69286;48.222;16.332;2023-04-26T12:23:12;16.50;39.20
17843;DHT22;69286;48.222;16.332;2023-04-26T12:25:41;16.50;38.60
17843;DHT22;69286;48.222;16.332;2023-04-26T12:28:16;16.50;38.60
17843;DHT22;69286;48.222;16.332;2023-04-26T12:30:44;16.50;39.00
17843;DHT22;69286;48.222;16.332;2023-04-26T12:33:10;16.50;39.60
17843;DHT22;69286;48.222;16.332;2023-04-26T12:35:39;16.60;40.50
17843;DHT22;69286;48.222;16.332;2023-04-26T12:38:06;16.50;40.50
17843;DHT22;69286;48.222;16.332;2023-04-26T12:40:33;16.50;40.60
17843;DHT22;69286;48.222;16.332;2023-04-26T12:43:01;16.40;40.20
17843;DHT22;69286;48.222;16.332;2023-04-26T12:45:28;16.40;40.70
17843;DHT22;69286;48.222;16.332;2023-04-26T12:47:55;16.30;40.80
17843;DHT22;69286;48.222;16.332;2023-04-26T12:50:22;16.20;40.60
17843;DHT22;69286;48.222;16.332;2023-04-26T12:52:51;16.20;40.60
17843;DHT22;69286;48.222;16.332;2023-04-26T12:55:19;16.10;40.80
17843;DHT22;69286;48.222;16.332;2023-04-26T12:57:46;16.10;41.00
17843;DHT22;69286;48.222;16.332;2023-04-26T13:00:15;16.00;40.70
17843;DHT22;69286;48.222;16.332;2023-04-26T13:02:42;16.10;41.20
17843;DHT22;69286;48.222;16.332;2023-04-26T13:05:10;16.00;41.20
17843;DHT22;69286;48.222;16.332;2023-04-26T13:07:38;16.10;41.50
17843;DHT22;69286;48.222;16.332;2023-04-26T13:10:08;15.90;40.90
17843;DHT22;69286;48.222;16.332;2023-04-26T13:12:36;15.80;41.00
17843;DHT22;69286;48.222;16.332;2023-04-26T13:15:04;15.80;41.30
17843;DHT22;69286;48.222;16.332;2023-04-26T13:17:31;15.90;41.00
17843;DHT22;69286;48.222;16.332;2023-04-26T13:19:58;15.80;40.90
17843;DHT22;69286;48.222;16.332;2023-04-26T13:22:25;15.80;42.00
17843;DHT22;69286;48.222;16.332;2023-04-26T13:24:52;15.90;41.70
17843;DHT22;69286;48.222;16.332;2023-04-26T13:27:20;15.90;41.50
17843;DHT22;69286;48.222;16.332;2023-04-26T13:29:47;15.90;41.30
17843;DHT22;69286;48.222;16.332;2023-04-26T13:32:14;16.00;41.70
17843;DHT22;69286;48.222;16.332;2023-04-26T13:34:42;16.10;40.30
17843;DHT22;69286;48.222;16.332;2023-04-26T13:37:10;16.20;40.70
17843;DHT22;69286;48.222;16.332;2023-04-26T13:39:37;16.10;40.60
17843;DHT22;69286;48.222;16.332;2023-04-26T13:42:04;16.10;40.30
17843;DHT22;69286;48.222;16.332;2023-04-26T13:44:33;16.20;40.40
17843;DHT22;69286;48.222;16.332;2023-04-26T13:47:00;16.20;40.60
17843;DHT22;69286;48.222;16.332;2023-04-26T13:49:26;16.20;40.90
17843;DHT22;69286;48.222;16.332;2023-04-26T13:51:53;16.10;40.90
17843;DHT22;69286;48.222;16.332;2023-04-26T13:54:20;16.10;40.90
17843;DHT22;69286;48.222;16.332;2023-04-26T13:56:50;16.00;40.60
17843;DHT22;69286;48.222;16.332;2023-04-26T13:59:17;16.00;40.70
17843;DHT22;69286;48.222;16.332;2023-04-26T14:01:45;15.90;41.00
17843;DHT22;69286;48.222;16.332;2023-04-26T14:04:12;16.00;40.80
17843;DHT22;69286;48.222;16.332;2023-04-26T14:06:39;16.10;41.00
17843;DHT22;69286;48.222;16.332;2023-04-26T14:09:06;16.10;40.60
17843;DHT22;69286;48.222;16.332;2023-04-26T14:11:34;16.20;39.90
17843;DHT22;69286;48.222;16.332;2023-04-26T14:14:01;16.10;39.80
17843;DHT22;69286;48.222;16.332;2023-04-26T14:16:28;16.20;40.10
17843;DHT22;69286;48.222;16.332;2023-04-26T14:18:56;16.20;40.30
17843;DHT22;69286;48.222;16.332;2023-04-26T14:21:23;16.20;40.30
17843;DHT22;69286;48.222;16.332;2023-04-26T14:23:51;16.20;40.60
17843;DHT22;69286;48.222;16.332;2023-04-26T14:26:18;16.20;40.90
17843;DHT22;69286;48.222;16.332;2023-04-26T14:28:45;16.20;40.70
17843;DHT22;69286;48.222;16.332;2023-04-26T14:31:12;16.10;40.50
17843;DHT22;69286;48.222;16.332;2023-04-26T14:33:42;16.10;40.90
17843;DHT22;69286;48.222;16.332;2023-04-26T14:36:10;16.00;41.20
17843;DHT22;69286;48.222;16.332;2023-04-26T14:38:40;15.90;41.00
17843;DHT22;69286;48.222;16.332;2023-04-26T14:41:07;15.90;41.30
17843;DHT22;69286;48.222;16.332;2023-04-26T14:43:34;15.80;41.10
17843;DHT22;69286;48.222;16.332;2023-04-26T14:46:01;15.70;41.20
17843;DHT22;69286;48.222;16.332;2023-04-26T14:48:28;15.70;42.10
17843;DHT22;69286;48.222;16.332;2023-04-26T14:50:57;15.70;41.40
17843;DHT22;69286;48.222;16.332;2023-04-26T14:53:26;15.90;41.70
17843;DHT22;69286;48.222;16.332;2023-04-26T14:55:54;15.70;41.90
17843;DHT22;69286;48.222;16.332;2023-04-26T14:58:21;15.70;42.10
17843;DHT22;69286;48.222;16.332;2023-04-26T15:00:48;15.60;42.20
17843;DHT22;69286;48.222;16.332;2023-04-26T15:03:15;15.60;42.20
17843;DHT22;69286;48.222;16.332;2023-04-26T15:05:42;15.60;41.90
17843;DHT22;69286;48.222;16.332;2023-04-26T15:08:09;15.60;42.30
17843;DHT22;69286;48.222;16.332;2023-04-26T15:10:37;15.70;42.30
17843;DHT22;69286;48.222;16.332;2023-04-26T15:13:04;15.80;42.00
17843;DHT22;69286;48.222;16.332;2023-04-26T15:15:31;15.90;41.40
17843;DHT22;69286;48.222;16.332;2023-04-26T15:17:58;15.90;41.10
17843;DHT22;69286;48.222;16.332;2023-04-26T15:20:26;15.90;40.70
17843;DHT22;69286;48.222;16.332;2023-04-26T15:22:53;15.90;40.70
17843;DHT22;69286;48.222;16.332;2023-04-26T15:25:20;15.70;40.90
17843;DHT22;69286;48.222;16.332;2023-04-26T15:27:48;15.70;41.20
17843;DHT22;69286;48.222;16.332;2023-04-26T15:30:16;15.70;41.70